sensor_id;sensor_type;location;lat;lon;timestamp;temperature;humidity
48666;DHT22;34452;50.796;4.994;2023-02-11T00:01:28;6.60;99.90
48666;DHT22;34452;50.796;4.994;2023-02-11T00:03:55;6.60;99.90
48666;DHT22;34452;50.796;4.994;2023-02-11T00:06:22;6.60;99.90
48666;DHT22;34452;50.796;4.994;2023-02-11T00:08:48;6.60;99.90
48666;DHT22;34452;50.796;4.994;2023-02-11T00:11:15;6.60;99.90
48666;DHT22;34452;50.796;4.994;2023-02-11T00:13:43;6.50;99.90
48666;DHT22;34452;50.796;4.994;2023-02-11T00:16:11;6.50;99.90
48666;DHT22;34452;50.796;4.994;2023-02-11T00:18:37;6.50;99.90
48666;DHT22;34452;50.796;4.994;2023-02-11T00:21:19;6.50;99.90
48666;DHT22;34452;50.796;4.994;2023-02-11T00:23:46;6.50;99.90
48666;DHT22;34452;50.796;4.994;2023-02-11T00:26:13;6.40;99.90
48666;DHT22;34452;50.796;4.994;2023-02-11T00:28:40;6.40;99.90
48666;DHT22;34452;50.796;4.994;2023-02-11T00:31:06;6.30;99.90
48666;DHT22;34452;50.796;4.994;2023-02-11T00:33:31;6.30;99.90
48666;DHT22;34452;50.796;4.994;2023-02-11T00:35:57;6.20;99.90
48666;DHT22;34452;50.796;4.994;2023-02-11T00:38:23;6.20;99.90
48666;DHT22;34452;50.796;4.994;2023-02-11T00:40:49;6.20;99.90
48666;DHT22;34452;50.796;4.994;2023-02-11T00:43:14;6.10;99.90
48666;DHT22;34452;50.796;4.994;2023-02-11T00:45:40;6.10;99.90
48666;DHT22;34452;50.796;4.994;2023-02-11T00:48:06;6.10;99.90
48666;DHT22;34452;50.796;4.994;2023-02-11T00:50:31;6.00;99.90
48666;DHT22;34452;50.796;4.994;2023-02-11T00:52:57;6.00;99.90
48666;DHT22;34452;50.796;4.994;2023-02-11T00:55:23;6.00;99.90
48666;DHT22;34452;50.796;4.994;2023-02-11T00:57:48;6.00;99.90
48666;DHT22;34452;50.796;4.994;2023-02-11T01:00:15;6.00;99.90
48666;DHT22;34452;50.796;4.994;2023-02-11T01:02:40;6.00;99.90
48666;DHT22;34452;50.796;4.994;2023-02-11T01:05:06;6.00;99.90
48666;DHT22;34452;50.796;4.994;2023-02-11T01:07:32;6.00;99.90
48666;DHT22;34452;50.796;4.994;2023-02-11T01:09:58;6.00;99.90
48666;DHT22;34452;50.796;4.994;2023-02-11T01:12:24;5.90;99.90
48666;DHT22;34452;50.796;4.994;2023-02-11T01:14:50;6.00;99.90
48666;DHT22;34452;50.796;4.994;2023-02-11T01:17:15;5.90;99.90
48666;DHT22;34452;50.796;4.994;2023-02-11T01:19:41;5.90;99.90
48666;DHT22;34452;50.796;4.994;2023-02-11T01:22:07;5.90;99.90
48666;DHT22;34452;50.796;4.994;2023-02-11T01:24:33;5.90;99.90
48666;DHT22;34452;50.796;4.994;2023-02-11T01:26:58;5.90;99.90
48666;DHT22;34452;50.796;4.994;2023-02-11T01:29:24;5.90;99.90
48666;DHT22;34452;50.796;4.994;2023-02-11T01:31:50;5.80;99.90
48666;DHT22;34452;50.796;4.994;2023-02-11T01:34:16;5.80;99.90
48666;DHT22;34452;50.796;4.994;2023-02-11T01:36:42;5.80;99.90
48666;DHT22;34452;50.796;4.994;2023-02-11T01:39:08;5.80;99.90
48666;DHT22;34452;50.796;4.994;2023-02-11T01:41:34;5.80;99.90
48666;DHT22;34452;50.796;4.994;2023-02-11T01:46:44;5.90;99.90
48666;DHT22;34452;50.796;4.994;2023-02-11T01:49:14;5.90;99.90
48666;DHT22;34452;50.796;4.994;2023-02-11T01:52:07;5.90;99.90
48666;DHT22;34452;50.796;4.994;2023-02-11T01:54:39;5.90;99.90
48666;DHT22;34452;50.796;4.994;2023-02-11T01:57:28;6.00;99.90
48666;DHT22;34452;50.796;4.994;2023-02-11T02:02:25;6.00;99.90
48666;DHT22;34452;50.796;4.994;2023-02-11T02:04:56;6.00;99.90
48666;DHT22;34452;50.796;4.994;2023-02-11T02:07:33;6.00;99.90
48666;DHT22;34452;50.796;4.994;2023-02-11T02:10:06;6.10;99.90
48666;DHT22;34452;50.796;4.994;2023-02-11T02:12:32;6.10;99.90
48666;DHT22;34452;50.796;4.994;2023-02-11T02:15:18;6.10;99.90
48666;DHT22;34452;50.796;4.994;2023-02-11T02:18:03;6.20;99.90
48666;DHT22;34452;50.796;4.994;2023-02-11T02:20:51;6.20;99.90
48666;DHT22;34452;50.796;4.994;2023-02-11T02:34:52;6.30;99.90
48666;DHT22;34452;50.796;4.994;2023-02-11T02:37:29;6.30;99.90
48666;DHT22;34452;50.796;4.994;2023-02-11T02:40:04;6.30;99.90
48666;DHT22;34452;50.796;4.994;2023-02-11T02:42:32;6.30;99.90
48666;DHT22;34452;50.796;4.994;2023-02-11T02:44:58;6.30;99.90
48666;DHT22;34452;50.796;4.994;2023-02-11T02:47:24;6.30;99.90
48666;DHT22;34452;50.796;4.994;2023-02-11T02:49:49;6.30;99.90
48666;DHT22;34452;50.796;4.994;2023-02-11T02:58:35;6.40;99.90
48666;DHT22;34452;50.796;4.994;2023-02-11T03:03:58;6.40;99.90
48666;DHT22;34452;50.796;4.994;2023-02-11T03:09:14;6.40;99.90
48666;DHT22;34452;50.796;4.994;2023-02-11T03:11:41;6.40;99.90
48666;DHT22;34452;50.796;4.994;2023-02-11T03:14:09;6.40;99.90
48666;DHT22;34452;50.796;4.994;2023-02-11T03:16:36;6.40;99.90
48666;DHT22;34452;50.796;4.994;2023-02-11T03:21:42;6.30;99.90
48666;DHT22;34452;50.796;4.994;2023-02-11T03:24:15;6.30;99.90
48666;DHT22;34452;50.796;4.994;2023-02-11T03:26:47;6.30;99.90
48666;DHT22;34452;50.796;4.994;2023-02-11T03:32:24;6.30;99.90
48666;DHT22;34452;50.796;4.994;2023-02-11T03:35:06;6.40;99.90
48666;DHT22;34452;50.796;4.994;2023-02-11T03:37:41;6.30;99.90
48666;DHT22;34452;50.796;4.994;2023-02-11T03:40:25;6.40;99.90
48666;DHT22;34452;50.796;4.994;2023-02-11T03:42:57;6.40;99.90
48666;DHT22;34452;50.796;4.994;2023-02-11T03:45:24;6.40;99.90
48666;DHT22;34452;50.796;4.994;2023-02-11T03:47:58;6.40;99.90
48666;DHT22;34452;50.796;4.994;2023-02-11T03:50:25;6.40;99.90
48666;DHT22;34452;50.796;4.994;2023-02-11T03:52:54;6.40;99.90
48666;DHT22;34452;50.796;4.994;2023-02-11T03:55:22;6.50;99.90
48666;DHT22;34452;50.796;4.994;2023-02-11T03:57:50;6.50;99.90
48666;DHT22;34452;50.796;4.994;2023-02-11T04:00:16;6.50;99.90
48666;DHT22;34452;50.796;4.994;2023-02-11T04:02:42;6.50;99.90
48666;DHT22;34452;50.796;4.994;2023-02-11T04:05:13;6.60;99.90
48666;DHT22;34452;50.796;4.994;2023-02-11T04:07:38;6.60;99.90
48666;DHT22;34452;50.796;4.994;2023-02-11T04:10:05;6.60;99.90
48666;DHT22;34452;50.796;4.994;2023-02-11T04:12:30;6.60;99.90
48666;DHT22;34452;50.796;4.994;2023-02-11T04:14:56;6.60;99.90
48666;DHT22;34452;50.796;4.994;2023-02-11T04:17:22;6.60;99.90
48666;DHT22;34452;50.796;4.994;2023-02-11T04:19:48;6.60;99.90
48666;DHT22;34452;50.796;4.994;2023-02-11T04:22:14;6.60;99.90
48666;DHT22;34452;50.796;4.994;2023-02-11T04:24:39;6.60;99.90
48666;DHT22;34452;50.796;4.994;2023-02-11T04:27:05;6.60;99.90
48666;DHT22;34452;50.796;4.994;2023-02-11T04:29:31;6.60;99.90
48666;DHT22;34452;50.796;4.994;2023-02-11T04:31:57;6.60;99.90
48666;DHT22;34452;50.796;4.994;2023-02-11T04:34:22;6.60;99.90
48666;DHT22;34452;50.796;4.994;2023-02-11T04:36:49;6.60;99.90
48666;DHT22;34452;50.796;4.994;2023-02-11T04:39:15;6.60;99.90
48666;DHT22;34452;50.796;4.994;2023-02-11T04:41:40;6.60;99.90
48666;DHT22;34452;50.796;4.994;2023-02-11T04:44:06;6.60;99.90
48666;DHT22;34452;50.796;4.994;2023-02-11T04:46:32;6.60;99.90
48666;DHT22;34452;50.796;4.994;2023-02-11T04:48:58;6.60;99.90
48666;DHT22;34452;50.796;4.994;2023-02-11T04:51:24;6.70;99.90
48666;DHT22;34452;50.796;4.994;2023-02-11T04:53:49;6.60;99.90
48666;DHT22;34452;50.796;4.994;2023-02-11T04:56:15;6.60;99.90
48666;DHT22;34452;50.796;4.994;2023-02-11T04:58:41;6.60;99.90
48666;DHT22;34452;50.796;4.994;2023-02-11T05:01:08;6.60;99.90
48666;DHT22;34452;50.796;4.994;2023-02-11T05:03:34;6.60;99.90
48666;DHT22;34452;50.796;4.994;2023-02-11T05:06:00;6.60;99.90
48666;DHT22;34452;50.796;4.994;2023-02-11T05:08:25;6.60;99.90
48666;DHT22;34452;50.796;4.994;2023-02-11T05:10:51;6.60;99.90
48666;DHT22;34452;50.796;4.994;2023-02-11T05:13:17;6.60;99.90
48666;DHT22;34452;50.796;4.994;2023-02-11T05:15:43;6.50;99.90
48666;DHT22;34452;50.796;4.994;2023-02-11T05:18:08;6.60;99.90
48666;DHT22;34452;50.796;4.994;2023-02-11T05:20:37;6.60;99.90
48666;DHT22;34452;50.796;4.994;2023-02-11T05:23:03;6.60;99.90
48666;DHT22;34452;50.796;4.994;2023-02-11T05:25:29;6.60;99.90
48666;DHT22;34452;50.796;4.994;2023-02-11T05:27:55;6.60;99.90
48666;DHT22;34452;50.796;4.994;2023-02-11T05:30:20;6.60;99.90
48666;DHT22;34452;50.796;4.994;2023-02-11T05:32:46;6.60;99.90
48666;DHT22;34452;50.796;4.994;2023-02-11T05:35:12;6.60;99.90
48666;DHT22;34452;50.796;4.994;2023-02-11T05:37:38;6.60;99.90
48666;DHT22;34452;50.796;4.994;2023-02-11T05:40:04;6.60;99.90
48666;DHT22;34452;50.796;4.994;2023-02-11T05:42:30;6.50;99.90
48666;DHT22;34452;50.796;4.994;2023-02-11T05:44:56;6.50;99.90
48666;DHT22;34452;50.796;4.994;2023-02-11T05:47:22;6.50;99.90
48666;DHT22;34452;50.796;4.994;2023-02-11T05:49:47;6.50;99.90
48666;DHT22;34452;50.796;4.994;2023-02-11T05:52:13;6.50;99.90
48666;DHT22;34452;50.796;4.994;2023-02-11T05:54:39;6.50;99.90
48666;DHT22;34452;50.796;4.994;2023-02-11T05:57:04;6.50;99.90
48666;DHT22;34452;50.796;4.994;2023-02-11T05:59:30;6.60;99.90
48666;DHT22;34452;50.796;4.994;2023-02-11T06:01:56;6.60;99.90
48666;DHT22;34452;50.796;4.994;2023-02-11T06:04:21;6.60;99.90
48666;DHT22;34452;50.796;4.994;2023-02-11T06:06:47;6.60;99.90
48666;DHT22;34452;50.796;4.994;2023-02-11T06:09:13;6.60;99.90
48666;DHT22;34452;50.796;4.994;2023-02-11T06:11:39;6.60;99.90
48666;DHT22;34452;50.796;4.994;2023-02-11T06:14:04;6.60;99.90
48666;DHT22;34452;50.796;4.994;2023-02-11T06:16:30;6.60;99.90
48666;DHT22;34452;50.796;4.994;2023-02-11T06:18:56;6.60;99.90
48666;DHT22;34452;50.796;4.994;2023-02-11T06:21:22;6.60;99.90
48666;DHT22;34452;50.796;4.994;2023-02-11T06:23:48;6.70;99.90
48666;DHT22;34452;50.796;4.994;2023-02-11T06:26:17;6.60;99.90
48666;DHT22;34452;50.796;4.994;2023-02-11T06:28:44;6.60;99.90
48666;DHT22;34452;50.796;4.994;2023-02-11T06:31:10;6.70;99.90
48666;DHT22;34452;50.796;4.994;2023-02-11T06:33:36;6.70;99.90
48666;DHT22;34452;50.796;4.994;2023-02-11T06:36:02;6.70;99.90
48666;DHT22;34452;50.796;4.994;2023-02-11T06:38:28;6.70;99.90
48666;DHT22;34452;50.796;4.994;2023-02-11T06:40:54;6.70;99.90
48666;DHT22;34452;50.796;4.994;2023-02-11T06:43:20;6.70;99.90
48666;DHT22;34452;50.796;4.994;2023-02-11T06:45:52;6.70;99.90
48666;DHT22;34452;50.796;4.994;2023-02-11T06:48:19;6.70;99.90
48666;DHT22;34452;50.796;4.994;2023-02-11T06:50:44;6.70;99.90
48666;DHT22;34452;50.796;4.994;2023-02-11T06:53:10;6.70;99.90
48666;DHT22;34452;50.796;4.994;2023-02-11T06:55:36;6.70;99.90
48666;DHT22;34452;50.796;4.994;2023-02-11T06:58:01;6.70;99.90
48666;DHT22;34452;50.796;4.994;2023-02-11T07:00:27;6.70;99.90
48666;DHT22;34452;50.796;4.994;2023-02-11T07:02:54;6.70;99.90
48666;DHT22;34452;50.796;4.994;2023-02-11T07:05:20;6.70;99.90
48666;DHT22;34452;50.796;4.994;2023-02-11T07:07:46;6.70;99.90
48666;DHT22;34452;50.796;4.994;2023-02-11T07:10:12;6.70;99.90
48666;DHT22;34452;50.796;4.994;2023-02-11T07:12:37;6.70;99.90
48666;DHT22;34452;50.796;4.994;2023-02-11T07:15:04;6.80;99.90
48666;DHT22;34452;50.796;4.994;2023-02-11T07:17:29;6.70;99.90
48666;DHT22;34452;50.796;4.994;2023-02-11T07:19:55;6.70;99.90
48666;DHT22;34452;50.796;4.994;2023-02-11T07:22:21;6.70;99.90
48666;DHT22;34452;50.796;4.994;2023-02-11T07:24:46;6.70;99.90
48666;DHT22;34452;50.796;4.994;2023-02-11T07:27:12;6.70;99.90
48666;DHT22;34452;50.796;4.994;2023-02-11T07:29:38;6.70;99.90
48666;DHT22;34452;50.796;4.994;2023-02-11T07:32:04;6.80;99.90
48666;DHT22;34452;50.796;4.994;2023-02-11T07:34:31;6.80;99.90
48666;DHT22;34452;50.796;4.994;2023-02-11T07:36:57;6.80;99.90
48666;DHT22;34452;50.796;4.994;2023-02-11T07:39:23;6.80;99.90
48666;DHT22;34452;50.796;4.994;2023-02-11T07:41:52;6.80;99.90
48666;DHT22;34452;50.796;4.994;2023-02-11T07:44:18;6.70;99.90
48666;DHT22;34452;50.796;4.994;2023-02-11T07:46:44;6.70;99.90
48666;DHT22;34452;50.796;4.994;2023-02-11T07:49:10;6.70;99.90
48666;DHT22;34452;50.796;4.994;2023-02-11T07:51:36;6.80;99.90
48666;DHT22;34452;50.796;4.994;2023-02-11T07:54:02;6.80;99.90
48666;DHT22;34452;50.796;4.994;2023-02-11T07:56:29;6.80;99.90
48666;DHT22;34452;50.796;4.994;2023-02-11T07:58:57;6.80;99.90
48666;DHT22;34452;50.796;4.994;2023-02-11T08:01:25;6.80;99.90
48666;DHT22;34452;50.796;4.994;2023-02-11T08:03:55;6.80;99.90
48666;DHT22;34452;50.796;4.994;2023-02-11T08:06:23;6.90;99.90
48666;DHT22;34452;50.796;4.994;2023-02-11T08:08:49;6.90;99.90
48666;DHT22;34452;50.796;4.994;2023-02-11T08:11:28;6.90;99.90
48666;DHT22;34452;50.796;4.994;2023-02-11T08:13:55;6.90;99.90
48666;DHT22;34452;50.796;4.994;2023-02-11T08:16:24;6.90;99.90
48666;DHT22;34452;50.796;4.994;2023-02-11T08:18:51;6.90;99.90
48666;DHT22;34452;50.796;4.994;2023-02-11T08:21:18;6.90;99.90
48666;DHT22;34452;50.796;4.994;2023-02-11T08:23:44;6.90;99.90
48666;DHT22;34452;50.796;4.994;2023-02-11T08:26:12;7.00;99.90
48666;DHT22;34452;50.796;4.994;2023-02-11T08:28:40;7.00;99.90
48666;DHT22;34452;50.796;4.994;2023-02-11T08:31:09;7.00;99.90
48666;DHT22;34452;50.796;4.994;2023-02-11T08:33:35;7.00;99.90
48666;DHT22;34452;50.796;4.994;2023-02-11T08:36:06;7.00;99.90
48666;DHT22;34452;50.796;4.994;2023-02-11T08:38:32;7.00;99.90
48666;DHT22;34452;50.796;4.994;2023-02-11T08:40:59;7.00;99.90
48666;DHT22;34452;50.796;4.994;2023-02-11T08:43:24;7.10;99.90
48666;DHT22;34452;50.796;4.994;2023-02-11T08:45:51;7.10;99.90
48666;DHT22;34452;50.796;4.994;2023-02-11T08:48:16;7.10;99.90
48666;DHT22;34452;50.796;4.994;2023-02-11T08:50:42;7.10;99.90
48666;DHT22;34452;50.796;4.994;2023-02-11T08:53:08;7.20;99.90
48666;DHT22;34452;50.796;4.994;2023-02-11T08:55:34;7.20;99.90
48666;DHT22;34452;50.796;4.994;2023-02-11T08:57:59;7.20;99.90
48666;DHT22;34452;50.796;4.994;2023-02-11T09:00:25;7.20;99.90
48666;DHT22;34452;50.796;4.994;2023-02-11T09:02:51;7.20;99.90
48666;DHT22;34452;50.796;4.994;2023-02-11T09:05:16;7.30;99.90
48666;DHT22;34452;50.796;4.994;2023-02-11T09:07:42;7.20;99.90
48666;DHT22;34452;50.796;4.994;2023-02-11T09:10:08;7.30;99.90
48666;DHT22;34452;50.796;4.994;2023-02-11T09:12:34;7.30;99.90
48666;DHT22;34452;50.796;4.994;2023-02-11T09:15:00;7.30;99.90
48666;DHT22;34452;50.796;4.994;2023-02-11T09:17:25;7.40;99.90
48666;DHT22;34452;50.796;4.994;2023-02-11T09:19:51;7.40;99.90
48666;DHT22;34452;50.796;4.994;2023-02-11T09:22:17;7.40;99.90
48666;DHT22;34452;50.796;4.994;2023-02-11T09:24:42;7.40;99.90
48666;DHT22;34452;50.796;4.994;2023-02-11T09:27:08;7.50;99.90
48666;DHT22;34452;50.796;4.994;2023-02-11T09:29:34;7.50;99.90
48666;DHT22;34452;50.796;4.994;2023-02-11T09:32:00;7.50;99.90
48666;DHT22;34452;50.796;4.994;2023-02-11T09:34:25;7.50;99.90
48666;DHT22;34452;50.796;4.994;2023-02-11T09:36:51;7.50;99.90
48666;DHT22;34452;50.796;4.994;2023-02-11T09:39:18;7.50;99.90
48666;DHT22;34452;50.796;4.994;2023-02-11T09:44:46;7.60;99.90
48666;DHT22;34452;50.796;4.994;2023-02-11T09:50:11;7.60;99.90
48666;DHT22;34452;50.796;4.994;2023-02-11T09:55:20;7.70;99.90
48666;DHT22;34452;50.796;4.994;2023-02-11T09:57:47;7.70;99.90
48666;DHT22;34452;50.796;4.994;2023-02-11T10:00:20;7.70;99.90
48666;DHT22;34452;50.796;4.994;2023-02-11T10:08:23;7.70;99.90
48666;DHT22;34452;50.796;4.994;2023-02-11T10:14:02;7.70;99.90
48666;DHT22;34452;50.796;4.994;2023-02-11T10:22:16;7.70;99.90
48666;DHT22;34452;50.796;4.994;2023-02-11T10:24:50;7.80;99.90
48666;DHT22;34452;50.796;4.994;2023-02-11T10:27:20;7.80;99.90
48666;DHT22;34452;50.796;4.994;2023-02-11T10:29:52;7.80;99.90
48666;DHT22;34452;50.796;4.994;2023-02-11T10:32:42;7.90;99.90
48666;DHT22;34452;50.796;4.994;2023-02-11T10:35:14;7.90;99.90
48666;DHT22;34452;50.796;4.994;2023-02-11T10:37:40;7.90;99.90
48666;DHT22;34452;50.796;4.994;2023-02-11T10:43:01;8.00;99.90
48666;DHT22;34452;50.796;4.994;2023-02-11T10:45:49;8.00;99.90
48666;DHT22;34452;50.796;4.994;2023-02-11T10:51:21;8.10;99.90
48666;DHT22;34452;50.796;4.994;2023-02-11T10:53:52;8.10;99.90
48666;DHT22;34452;50.796;4.994;2023-02-11T10:56:58;8.10;99.90
48666;DHT22;34452;50.796;4.994;2023-02-11T10:59:29;8.20;99.90
48666;DHT22;34452;50.796;4.994;2023-02-11T11:01:59;8.20;99.90
48666;DHT22;34452;50.796;4.994;2023-02-11T11:04:34;8.20;99.90
48666;DHT22;34452;50.796;4.994;2023-02-11T11:07:20;8.30;99.90
48666;DHT22;34452;50.796;4.994;2023-02-11T11:14:54;8.30;99.90
48666;DHT22;34452;50.796;4.994;2023-02-11T11:17:20;8.30;99.90
48666;DHT22;34452;50.796;4.994;2023-02-11T11:19:46;8.40;99.90
48666;DHT22;34452;50.796;4.994;2023-02-11T11:22:20;8.40;99.90
48666;DHT22;34452;50.796;4.994;2023-02-11T11:24:47;8.40;99.90
48666;DHT22;34452;50.796;4.994;2023-02-11T11:27:21;8.40;99.90
48666;DHT22;34452;50.796;4.994;2023-02-11T11:29:51;8.40;99.90
48666;DHT22;34452;50.796;4.994;2023-02-11T11:32:35;8.40;99.90
48666;DHT22;34452;50.796;4.994;2023-02-11T11:35:04;8.40;99.90
48666;DHT22;34452;50.796;4.994;2023-02-11T11:37:35;8.40;99.90
48666;DHT22;34452;50.796;4.994;2023-02-11T11:40:09;8.40;99.90
48666;DHT22;34452;50.796;4.994;2023-02-11T11:42:37;8.40;99.90
48666;DHT22;34452;50.796;4.994;2023-02-11T11:45:23;8.40;99.90
48666;DHT22;34452;50.796;4.994;2023-02-11T11:48:11;8.40;99.90
48666;DHT22;34452;50.796;4.994;2023-02-11T11:50:46;8.50;99.90
48666;DHT22;34452;50.796;4.994;2023-02-11T11:53:19;8.50;99.90
48666;DHT22;34452;50.796;4.994;2023-02-11T11:56:23;8.50;99.90
48666;DHT22;34452;50.796;4.994;2023-02-11T11:58:38;8.50;99.90
48666;DHT22;34452;50.796;4.994;2023-02-11T12:12:53;8.70;99.90
48666;DHT22;34452;50.796;4.994;2023-02-11T12:18:45;8.70;99.90
48666;DHT22;34452;50.796;4.994;2023-02-11T12:24:15;8.70;99.90
48666;DHT22;34452;50.796;4.994;2023-02-11T12:32:34;8.70;99.90
48666;DHT22;34452;50.796;4.994;2023-02-11T12:35:24;8.70;99.90
48666;DHT22;34452;50.796;4.994;2023-02-11T12:43:41;8.80;99.90
48666;DHT22;34452;50.796;4.994;2023-02-11T12:46:26;8.80;99.90
48666;DHT22;34452;50.796;4.994;2023-02-11T12:54:41;8.80;99.90
48666;DHT22;34452;50.796;4.994;2023-02-11T12:57:21;8.70;99.90
48666;DHT22;34452;50.796;4.994;2023-02-11T12:59:51;8.80;99.90
48666;DHT22;34452;50.796;4.994;2023-02-11T13:05:22;8.90;99.90
48666;DHT22;34452;50.796;4.994;2023-02-11T13:07:50;8.90;99.90
48666;DHT22;34452;50.796;4.994;2023-02-11T13:10:38;8.90;99.90
48666;DHT22;34452;50.796;4.994;2023-02-11T13:13:14;8.90;99.90
48666;DHT22;34452;50.796;4.994;2023-02-11T13:15:49;9.00;99.90
48666;DHT22;34452;50.796;4.994;2023-02-11T13:23:57;8.90;99.90
48666;DHT22;34452;50.796;4.994;2023-02-11T13:26:46;8.90;99.90
48666;DHT22;34452;50.796;4.994;2023-02-11T13:29:15;9.00;99.90
48666;DHT22;34452;50.796;4.994;2023-02-11T13:31:52;9.00;99.90
48666;DHT22;34452;50.796;4.994;2023-02-11T13:37:12;9.00;99.90
48666;DHT22;34452;50.796;4.994;2023-02-11T13:42:56;9.00;99.90
48666;DHT22;34452;50.796;4.994;2023-02-11T13:45:37;9.00;99.90
48666;DHT22;34452;50.796;4.994;2023-02-11T13:48:12;9.00;99.90
48666;DHT22;34452;50.796;4.994;2023-02-11T13:50:46;9.00;99.90
48666;DHT22;34452;50.796;4.994;2023-02-11T13:53:13;9.10;99.90
48666;DHT22;34452;50.796;4.994;2023-02-11T13:55:45;9.10;99.90
48666;DHT22;34452;50.796;4.994;2023-02-11T14:03:26;9.10;99.90
48666;DHT22;34452;50.796;4.994;2023-02-11T14:06:29;9.10;99.90
48666;DHT22;34452;50.796;4.994;2023-02-11T14:11:47;9.10;99.90
48666;DHT22;34452;50.796;4.994;2023-02-11T14:19:47;9.00;99.90
48666;DHT22;34452;50.796;4.994;2023-02-11T14:22:28;9.10;99.90
48666;DHT22;34452;50.796;4.994;2023-02-11T14:27:43;9.10;99.90
48666;DHT22;34452;50.796;4.994;2023-02-11T14:33:19;9.00;99.90
48666;DHT22;34452;50.796;4.994;2023-02-11T14:35:57;9.00;99.90
48666;DHT22;34452;50.796;4.994;2023-02-11T14:41:04;9.00;99.90
48666;DHT22;34452;50.796;4.994;2023-02-11T14:46:17;9.00;99.90
48666;DHT22;34452;50.796;4.994;2023-02-11T14:48:46;9.10;99.90
48666;DHT22;34452;50.796;4.994;2023-02-11T14:53:49;9.00;99.90
48666;DHT22;34452;50.796;4.994;2023-02-11T14:56:17;9.00;99.90
48666;DHT22;34452;50.796;4.994;2023-02-11T14:59:01;9.00;99.90
48666;DHT22;34452;50.796;4.994;2023-02-11T15:01:31;9.00;99.90
48666;DHT22;34452;50.796;4.994;2023-02-11T15:03:59;9.00;99.90
48666;DHT22;34452;50.796;4.994;2023-02-11T15:06:43;9.00;99.90
48666;DHT22;34452;50.796;4.994;2023-02-11T15:11:57;9.00;99.90
48666;DHT22;34452;50.796;4.994;2023-02-11T15:14:35;9.00;99.90
48666;DHT22;34452;50.796;4.994;2023-02-11T15:17:03;9.00;99.90
48666;DHT22;34452;50.796;4.994;2023-02-11T15:22:18;9.00;99.90
48666;DHT22;34452;50.796;4.994;2023-02-11T15:27:23;9.00;99.90
48666;DHT22;34452;50.796;4.994;2023-02-11T15:29:50;9.00;99.90
48666;DHT22;34452;50.796;4.994;2023-02-11T15:32:18;9.00;99.90
48666;DHT22;34452;50.796;4.994;2023-02-11T15:34:46;9.00;99.90
48666;DHT22;34452;50.796;4.994;2023-02-11T15:37:15;9.00;99.90
48666;DHT22;34452;50.796;4.994;2023-02-11T15:39:43;9.00;99.90
48666;DHT22;34452;50.796;4.994;2023-02-11T15:42:28;9.00;99.90
48666;DHT22;34452;50.796;4.994;2023-02-11T15:47:41;9.00;99.90
48666;DHT22;34452;50.796;4.994;2023-02-11T15:50:23;9.00;99.90
48666;DHT22;34452;50.796;4.994;2023-02-11T15:52:51;9.00;99.90
48666;DHT22;34452;50.796;4.994;2023-02-11T15:55:17;9.00;99.90
48666;DHT22;34452;50.796;4.994;2023-02-11T15:57:56;9.00;99.90
48666;DHT22;34452;50.796;4.994;2023-02-11T16:00:25;9.00;99.90
48666;DHT22;34452;50.796;4.994;2023-02-11T16:02:54;9.00;99.90
48666;DHT22;34452;50.796;4.994;2023-02-11T16:05:39;9.00;99.90
48666;DHT22;34452;50.796;4.994;2023-02-11T16:08:25;9.00;99.90
48666;DHT22;34452;50.796;4.994;2023-02-11T16:11:24;8.90;99.90
48666;DHT22;34452;50.796;4.994;2023-02-11T16:13:49;8.90;99.90
48666;DHT22;34452;50.796;4.994;2023-02-11T16:19:00;8.90;99.90
48666;DHT22;34452;50.796;4.994;2023-02-11T16:21:32;8.90;99.90
48666;DHT22;34452;50.796;4.994;2023-02-11T16:24:01;8.90;99.90
48666;DHT22;34452;50.796;4.994;2023-02-11T16:26:32;8.90;99.90
48666;DHT22;34452;50.796;4.994;2023-02-11T16:29:13;8.90;99.90
48666;DHT22;34452;50.796;4.994;2023-02-11T16:31:42;8.90;99.90
48666;DHT22;34452;50.796;4.994;2023-02-11T16:34:27;8.90;99.90
48666;DHT22;34452;50.796;4.994;2023-02-11T16:36:53;8.90;99.90
48666;DHT22;34452;50.796;4.994;2023-02-11T16:39:20;8.90;99.90
48666;DHT22;34452;50.796;4.994;2023-02-11T16:41:47;8.80;99.90
48666;DHT22;34452;50.796;4.994;2023-02-11T16:44:16;8.90;99.90
48666;DHT22;34452;50.796;4.994;2023-02-11T16:46:42;8.80;99.90
48666;DHT22;34452;50.796;4.994;2023-02-11T16:49:14;8.80;99.90
48666;DHT22;34452;50.796;4.994;2023-02-11T16:51:48;8.80;99.90
48666;DHT22;34452;50.796;4.994;2023-02-11T16:54:16;8.80;99.90
48666;DHT22;34452;50.796;4.994;2023-02-11T16:56:42;8.80;99.90
48666;DHT22;34452;50.796;4.994;2023-02-11T16:59:08;8.80;99.90
48666;DHT22;34452;50.796;4.994;2023-02-11T17:01:35;8.80;99.90
48666;DHT22;34452;50.796;4.994;2023-02-11T17:04:03;8.80;99.90
48666;DHT22;34452;50.796;4.994;2023-02-11T17:06:29;8.80;99.90
48666;DHT22;34452;50.796;4.994;2023-02-11T17:08:54;8.80;99.90
48666;DHT22;34452;50.796;4.994;2023-02-11T17:11:20;8.80;99.90
48666;DHT22;34452;50.796;4.994;2023-02-11T17:13:46;8.80;99.90
48666;DHT22;34452;50.796;4.994;2023-02-11T17:16:30;8.70;99.90
48666;DHT22;34452;50.796;4.994;2023-02-11T17:18:57;8.80;99.90
48666;DHT22;34452;50.796;4.994;2023-02-11T17:21:22;8.70;99.90
48666;DHT22;34452;50.796;4.994;2023-02-11T17:23:50;8.80;99.90
48666;DHT22;34452;50.796;4.994;2023-02-11T17:26:15;8.70;99.90
48666;DHT22;34452;50.796;4.994;2023-02-11T17:28:41;8.70;99.90
48666;DHT22;34452;50.796;4.994;2023-02-11T17:31:08;8.70;99.90
48666;DHT22;34452;50.796;4.994;2023-02-11T17:33:34;8.70;99.90
48666;DHT22;34452;50.796;4.994;2023-02-11T17:36:04;8.70;99.90
48666;DHT22;34452;50.796;4.994;2023-02-11T17:38:30;8.70;99.90
48666;DHT22;34452;50.796;4.994;2023-02-11T17:40:57;8.70;99.90
48666;DHT22;34452;50.796;4.994;2023-02-11T17:43:24;8.70;99.90
48666;DHT22;34452;50.796;4.994;2023-02-11T17:45:50;8.70;99.90
48666;DHT22;34452;50.796;4.994;2023-02-11T17:48:16;8.70;99.90
48666;DHT22;34452;50.796;4.994;2023-02-11T17:50:42;8.70;99.90
48666;DHT22;34452;50.796;4.994;2023-02-11T17:53:08;8.70;99.90
48666;DHT22;34452;50.796;4.994;2023-02-11T17:55:34;8.70;99.90
48666;DHT22;34452;50.796;4.994;2023-02-11T17:58:02;8.70;99.90
48666;DHT22;34452;50.796;4.994;2023-02-11T18:00:29;8.70;99.90
48666;DHT22;34452;50.796;4.994;2023-02-11T18:02:55;8.70;99.90
48666;DHT22;34452;50.796;4.994;2023-02-11T18:05:22;8.70;99.90
48666;DHT22;34452;50.796;4.994;2023-02-11T18:07:50;8.70;99.90
48666;DHT22;34452;50.796;4.994;2023-02-11T18:10:16;8.60;99.90
48666;DHT22;34452;50.796;4.994;2023-02-11T18:12:42;8.60;99.90
48666;DHT22;34452;50.796;4.994;2023-02-11T18:15:08;8.60;99.90
48666;DHT22;34452;50.796;4.994;2023-02-11T18:17:34;8.60;99.90
48666;DHT22;34452;50.796;4.994;2023-02-11T18:20:00;8.60;99.90
48666;DHT22;34452;50.796;4.994;2023-02-11T18:22:27;8.60;99.90
48666;DHT22;34452;50.796;4.994;2023-02-11T18:24:55;8.60;99.90
48666;DHT22;34452;50.796;4.994;2023-02-11T18:27:21;8.50;99.90
48666;DHT22;34452;50.796;4.994;2023-02-11T18:29:47;8.50;99.90
48666;DHT22;34452;50.796;4.994;2023-02-11T18:32:13;8.50;99.90
48666;DHT22;34452;50.796;4.994;2023-02-11T18:34:40;8.50;99.90
48666;DHT22;34452;50.796;4.994;2023-02-11T18:37:05;8.50;99.90